createdAt,value
2023-07-07T00:03:30.694Z,2.72
2023-07-07T00:07:32.627Z,2.53
2023-07-07T00:11:34.495Z,2.80
2023-07-07T00:15:36.329Z,2.53
2023-07-07T00:19:38.324Z,2.42
2023-07-07T00:23:40.309Z,2.67
2023-07-07T00:27:42.079Z,2.67
2023-07-07T00:31:43.898Z,2.47
2023-07-07T00:35:49.679Z,2.65
2023-07-07T00:39:52.582Z,2.95
2023-07-07T00:44:09.690Z,2.70
2023-07-07T00:48:28.047Z,2.67
2023-07-07T00:52:30.865Z,2.58
2023-07-07T00:56:47.957Z,2.60
2023-07-07T01:01:01.171Z,2.35
2023-07-07T01:05:06.144Z,2.75
2023-07-07T01:09:10.027Z,2.90
2023-07-07T01:13:13.995Z,2.72
2023-07-07T01:17:30.062Z,3.47
2023-07-07T01:21:54.171Z,3.30
2023-07-07T01:26:04.824Z,3.08
2023-07-07T01:30:28.827Z,3.00
2023-07-07T01:34:30.830Z,2.65
2023-07-07T01:38:38.407Z,2.97
2023-07-07T01:42:52.708Z,2.90
2023-07-07T01:47:09.356Z,2.72
2023-07-07T01:51:14.143Z,2.77
2023-07-07T01:55:22.404Z,2.53
2023-07-07T01:59:25.163Z,2.80
2023-07-07T02:03:29.390Z,2.65
2023-07-07T02:07:31.308Z,2.83
2023-07-07T02:11:33.321Z,3.03
2023-07-07T02:15:35.398Z,2.63
2023-07-07T02:19:37.252Z,3.15
2023-07-07T02:23:39.037Z,2.78
2023-07-07T02:27:40.968Z,2.80
2023-07-07T02:31:42.908Z,3.08
2023-07-07T02:35:49.966Z,3.10
2023-07-07T02:43:54.812Z,2.92
2023-07-07T02:47:56.795Z,2.65
2023-07-07T02:51:58.721Z,2.75
2023-07-07T02:56:01.106Z,2.83
2023-07-07T03:00:06.583Z,2.80
2023-07-07T03:04:08.444Z,2.53
2023-07-07T03:08:11.089Z,2.60
2023-07-07T03:12:13.105Z,2.50
2023-07-07T03:16:31.819Z,2.78
2023-07-07T03:20:51.596Z,2.88
2023-07-07T03:25:01.457Z,2.70
2023-07-07T03:29:25.025Z,2.80
2023-07-07T03:33:27.661Z,2.83
2023-07-07T03:37:30.865Z,3.30
2023-07-07T03:41:34.242Z,3.00
2023-07-07T03:45:39.269Z,2.65
2023-07-07T03:49:41.366Z,2.78
2023-07-07T03:53:44.612Z,3.00
2023-07-07T03:57:48.176Z,2.95
2023-07-07T04:01:50.660Z,2.88
2023-07-07T04:05:54.908Z,2.78
2023-07-07T04:09:56.776Z,2.60
2023-07-07T04:13:59.864Z,2.90
2023-07-07T04:18:01.849Z,2.90
2023-07-07T04:22:04.119Z,2.88
2023-07-07T04:26:07.635Z,2.95
2023-07-07T04:30:11.157Z,2.97
2023-07-07T04:34:15.167Z,2.80
2023-07-07T04:38:17.308Z,2.85
2023-07-07T04:42:19.857Z,2.97
2023-07-07T04:46:25.811Z,2.67
2023-07-07T04:50:28.884Z,3.03
2023-07-07T04:54:30.878Z,2.83
2023-07-07T04:58:32.821Z,3.30
2023-07-07T05:02:36.867Z,2.90
2023-07-07T05:06:40.689Z,3.10
2023-07-07T05:10:42.602Z,2.90
2023-07-07T05:14:44.453Z,2.78
2023-07-07T05:18:46.831Z,2.88
2023-07-07T05:22:48.965Z,3.00
2023-07-07T05:26:51.046Z,3.28
2023-07-07T05:30:53.164Z,3.28
2023-07-07T05:34:54.966Z,2.85
2023-07-07T05:38:56.784Z,3.03
2023-07-07T05:42:58.565Z,2.90
2023-07-07T05:47:00.338Z,2.92
2023-07-07T05:51:06.097Z,2.88
2023-07-07T05:55:24.036Z,2.85
2023-07-07T05:59:25.827Z,3.00
2023-07-07T06:03:27.794Z,3.20
2023-07-07T06:07:31.493Z,3.17
2023-07-07T06:11:33.568Z,3.00
2023-07-07T06:15:35.454Z,3.15
2023-07-07T06:19:37.311Z,3.42
2023-07-07T06:23:39.224Z,3.80
2023-07-07T06:27:41.052Z,3.53
2023-07-07T06:31:42.868Z,3.88
2023-07-07T06:35:45.082Z,3.78
2023-07-07T06:39:46.901Z,3.78
2023-07-07T06:43:48.665Z,4.03
2023-07-07T06:47:50.542Z,4.13
2023-07-07T06:51:52.444Z,3.78
2023-07-07T06:55:54.365Z,4.05
2023-07-07T06:59:56.192Z,4.20
2023-07-07T07:04:01.634Z,3.83
2023-07-07T07:08:03.753Z,3.85
2023-07-07T07:12:06.058Z,3.83
2023-07-07T07:16:08.162Z,4.07
2023-07-07T07:20:12.666Z,3.72
2023-07-07T07:24:14.476Z,3.58
2023-07-07T07:28:16.814Z,4.18
2023-07-07T07:32:19.090Z,4.00
2023-07-07T07:36:21.977Z,3.45
2023-07-07T07:40:24.965Z,3.65
2023-07-07T07:44:27.005Z,3.42
2023-07-07T07:48:28.870Z,3.22
2023-07-07T07:52:30.679Z,3.75
2023-07-07T07:56:32.564Z,3.30
2023-07-07T08:00:34.357Z,3.28
2023-07-07T08:04:36.178Z,2.92
2023-07-07T08:08:38.204Z,3.40
2023-07-07T08:12:40.450Z,3.33
2023-07-07T08:16:42.447Z,3.55
2023-07-07T08:20:44.289Z,3.40
2023-07-07T08:24:58.168Z,2.80
2023-07-07T08:29:01.015Z,3.55
2023-07-07T08:33:02.930Z,3.20
2023-07-07T08:37:05.310Z,3.35
2023-07-07T08:41:07.285Z,2.97
2023-07-07T08:45:15.977Z,3.25
2023-07-07T08:49:24.939Z,3.08
2023-07-07T08:53:32.790Z,3.28
2023-07-07T08:57:42.588Z,2.90
2023-07-07T09:02:06.422Z,2.78
2023-07-07T09:06:29.157Z,2.72
2023-07-07T09:10:30.973Z,2.70
2023-07-07T09:14:33.135Z,3.08
2023-07-07T09:18:41.675Z,2.90
2023-07-07T09:23:01.163Z,2.95
2023-07-07T09:27:12.430Z,2.60
2023-07-07T09:31:42.591Z,3.28
2023-07-07T09:36:13.888Z,2.88
2023-07-07T09:40:34.792Z,2.88
2023-07-07T09:44:56.814Z,2.70
2023-07-07T09:49:27.551Z,2.70
2023-07-07T09:53:46.203Z,2.20
2023-07-07T09:57:56.582Z,2.35
2023-07-07T10:02:00.236Z,2.50
2023-07-07T10:06:29.927Z,2.60
2023-07-07T10:10:33.178Z,2.45
2023-07-07T10:14:35.925Z,2.58
2023-07-07T10:18:49.346Z,2.70
2023-07-07T10:22:55.695Z,2.72
2023-07-07T10:26:59.017Z,2.50
2023-07-07T10:31:07.296Z,2.15
2023-07-07T10:35:10.558Z,2.40
2023-07-07T10:39:13.681Z,2.33
2023-07-07T10:43:17.140Z,2.22
2023-07-07T10:47:25.230Z,2.25
2023-07-07T10:51:44.070Z,2.10
2023-07-07T10:56:18.722Z,2.30
2023-07-07T11:00:38.768Z,2.22
2023-07-07T11:05:02.259Z,2.13
2023-07-07T11:09:25.812Z,2.15
2023-07-07T11:13:43.620Z,2.28
2023-07-07T11:17:54.283Z,2.72
2023-07-07T11:22:25.129Z,2.55
2023-07-07T11:26:32.797Z,2.58
2023-07-07T11:30:46.910Z,2.70
2023-07-07T11:35:11.632Z,2.65
2023-07-07T11:39:30.066Z,2.37
2023-07-07T11:43:46.620Z,2.75
2023-07-07T11:48:04.131Z,2.70
2023-07-07T11:52:28.016Z,2.50
2023-07-07T11:57:04.210Z,2.33
2023-07-07T12:01:41.515Z,2.50
2023-07-07T12:05:46.850Z,2.40
2023-07-07T12:09:55.976Z,2.38
2023-07-07T12:14:00.874Z,2.42
2023-07-07T12:18:32.305Z,2.95
2023-07-07T12:22:38.765Z,2.80
2023-07-07T12:26:46.266Z,2.40
2023-07-07T12:30:49.439Z,2.80
2023-07-07T12:35:13.734Z,2.60
2023-07-07T12:39:16.588Z,2.80
2023-07-07T12:43:28.636Z,2.70
2023-07-07T12:47:32.646Z,2.63
2023-07-07T12:51:38.439Z,2.70
2023-07-07T12:56:02.483Z,2.20
2023-07-07T13:00:30.458Z,2.35
2023-07-07T13:04:40.648Z,2.28
2023-07-07T13:08:42.457Z,2.28
2023-07-07T13:12:48.840Z,2.28
2023-07-07T13:16:51.290Z,2.38
2023-07-07T13:20:55.332Z,2.50
2023-07-07T13:29:04.351Z,2.25
2023-07-07T13:33:08.082Z,2.30
2023-07-07T13:37:11.695Z,2.30
2023-07-07T13:41:16.044Z,2.58
2023-07-07T13:45:21.830Z,2.60
2023-07-07T13:49:23.749Z,2.40
2023-07-07T13:53:26.856Z,2.50
2023-07-07T13:57:33.516Z,2.67
2023-07-07T14:01:39.456Z,2.75
2023-07-07T14:05:42.474Z,2.60
2023-07-07T14:09:46.976Z,2.40
2023-07-07T14:13:54.425Z,2.50
2023-07-07T14:17:56.423Z,2.35
2023-07-07T14:21:58.991Z,2.53
2023-07-07T14:26:01.117Z,2.50
2023-07-07T14:30:03.707Z,2.50
2023-07-07T14:34:05.876Z,2.50
2023-07-07T14:38:37.180Z,2.38
2023-07-07T14:42:50.175Z,2.20
2023-07-07T14:46:52.932Z,1.88
2023-07-07T14:51:06.403Z,1.83
2023-07-07T14:55:24.702Z,2.05
2023-07-07T14:59:37.482Z,2.00
2023-07-07T15:03:39.959Z,1.92
2023-07-07T15:07:42.837Z,1.67
2023-07-07T15:11:46.019Z,2.13
2023-07-07T15:15:52.074Z,1.95
2023-07-07T15:19:54.374Z,1.98
2023-07-07T15:23:56.410Z,2.00
2023-07-07T15:27:58.503Z,1.88
2023-07-07T15:32:00.379Z,2.00
2023-07-07T15:36:02.209Z,1.90
2023-07-07T15:40:12.389Z,1.80
2023-07-07T15:44:14.247Z,1.85
2023-07-07T15:48:16.037Z,2.00
2023-07-07T15:52:18.466Z,2.08
2023-07-07T15:56:22.484Z,2.08
2023-07-07T16:00:29.650Z,2.00
2023-07-07T16:04:31.530Z,2.10
2023-07-07T16:08:33.393Z,1.90
2023-07-07T16:12:35.205Z,2.40
2023-07-07T16:16:39.559Z,2.05
2023-07-07T16:20:41.718Z,2.00
2023-07-07T16:24:43.558Z,1.85
2023-07-07T16:28:45.776Z,2.03
2023-07-07T16:32:47.871Z,1.80
2023-07-07T16:36:49.734Z,2.85
2023-07-07T16:40:52.737Z,2.47
2023-07-07T16:44:54.534Z,2.42
2023-07-07T16:48:56.285Z,2.30
2023-07-07T16:52:59.795Z,2.35
2023-07-07T16:57:01.655Z,2.17
2023-07-07T17:01:03.462Z,2.00
2023-07-07T17:05:05.770Z,1.90
2023-07-07T17:09:17.222Z,1.95
2023-07-07T17:13:19.316Z,1.83
2023-07-07T17:17:21.851Z,1.83
2023-07-07T17:21:25.462Z,1.77
2023-07-07T17:25:27.637Z,1.80
2023-07-07T17:29:29.531Z,1.52
2023-07-07T17:33:31.770Z,1.83
2023-07-07T17:37:33.535Z,1.77
2023-07-07T17:41:35.319Z,1.88
2023-07-07T17:45:37.306Z,1.63
2023-07-07T17:49:40.036Z,1.80
2023-07-07T17:53:41.930Z,1.50
2023-07-07T17:57:45.800Z,1.50
2023-07-07T18:01:49.124Z,1.48
2023-07-07T18:05:51.349Z,1.60
2023-07-07T18:09:53.138Z,1.48
2023-07-07T18:13:55.805Z,1.60
2023-07-07T18:18:06.987Z,1.60
2023-07-07T18:22:19.557Z,1.60
2023-07-07T18:26:30.860Z,1.52
2023-07-07T18:30:41.227Z,1.35
2023-07-07T18:34:45.213Z,1.55
2023-07-07T18:38:47.319Z,1.40
2023-07-07T18:42:54.243Z,1.38
2023-07-07T18:50:57.869Z,1.55
2023-07-07T18:55:00.136Z,1.70
2023-07-07T18:59:02.419Z,1.58
2023-07-07T19:03:04.610Z,1.70
2023-07-07T19:07:08.860Z,1.88
2023-07-07T19:11:14.743Z,1.65
2023-07-07T19:15:16.592Z,2.00
2023-07-07T19:19:24.703Z,1.80
2023-07-07T19:23:28.589Z,1.60
2023-07-07T19:27:30.400Z,1.58
2023-07-07T19:31:35.613Z,1.90
2023-07-07T19:35:37.495Z,1.90
2023-07-07T19:39:39.319Z,1.80
2023-07-07T19:43:41.114Z,1.80
2023-07-07T19:47:43.014Z,1.73
2023-07-07T19:51:45.332Z,1.88
2023-07-07T19:55:47.533Z,1.80
2023-07-07T19:59:49.773Z,1.75
2023-07-07T20:03:53.423Z,2.00
2023-07-07T20:07:55.696Z,1.88
2023-07-07T20:11:58.858Z,1.80
2023-07-07T20:16:01.052Z,1.70
2023-07-07T20:20:13.986Z,1.80
2023-07-07T20:24:18.895Z,2.05
2023-07-07T20:28:20.813Z,2.00
2023-07-07T20:32:23.249Z,1.63
2023-07-07T20:36:25.514Z,2.05
2023-07-07T20:40:28.221Z,2.38
2023-07-07T20:44:30.162Z,2.22
2023-07-07T20:48:31.977Z,2.00
2023-07-07T20:52:33.833Z,2.22
2023-07-07T20:56:35.962Z,2.30
2023-07-07T21:00:43.129Z,2.58
2023-07-07T21:04:44.971Z,3.00
2023-07-07T21:08:47.549Z,2.53
2023-07-07T21:12:51.658Z,2.45
2023-07-07T21:16:53.968Z,2.53
2023-07-07T21:20:56.035Z,2.38
2023-07-07T21:24:57.829Z,2.80
2023-07-07T21:28:59.987Z,2.35
2023-07-07T21:33:01.883Z,2.25
2023-07-07T21:37:03.802Z,2.63
2023-07-07T21:41:10.817Z,2.50
2023-07-07T21:45:17.855Z,2.50
2023-07-07T21:49:19.680Z,2.50
2023-07-07T21:53:21.482Z,2.58
2023-07-07T21:57:56.724Z,2.45
2023-07-07T22:01:58.626Z,2.58
2023-07-07T22:06:00.774Z,2.63
2023-07-07T22:10:26.228Z,2.55
2023-07-07T22:14:28.015Z,2.58
2023-07-07T22:18:32.125Z,2.70
2023-07-07T22:22:35.821Z,2.83
2023-07-07T22:26:37.619Z,2.50
2023-07-07T22:30:43.985Z,2.35
2023-07-07T22:34:45.828Z,2.10
2023-07-07T22:38:48.179Z,2.30
2023-07-07T22:42:50.142Z,2.40
2023-07-07T22:46:51.989Z,2.50
2023-07-07T22:50:53.880Z,2.72
2023-07-07T22:54:55.645Z,2.67
2023-07-07T22:58:58.601Z,2.50
2023-07-07T23:03:00.456Z,2.30
2023-07-07T23:07:02.280Z,2.38
2023-07-07T23:11:11.102Z,2.58
2023-07-07T23:15:14.979Z,2.60
2023-07-07T23:19:16.762Z,2.60
2023-07-07T23:23:22.880Z,2.25
2023-07-07T23:27:27.408Z,2.42
2023-07-07T23:31:29.310Z,2.45
2023-07-07T23:35:32.613Z,2.63
2023-07-07T23:39:35.936Z,2.42
2023-07-07T23:43:37.734Z,2.80
2023-07-07T23:47:44.965Z,2.80
2023-07-07T23:51:48.673Z,2.72
2023-07-07T23:55:51.056Z,2.53
2023-07-07T23:59:52.860Z,3.00
